Cape Bata — V7EF2 — position and weather

sailwx.info

Track history (hours):
 
Tides and Currents Weather Stations Pressure Air Temp Water Temp Dewpoint Dewpoint Depression Visibility Wind Speed Wind Dir Waves Ship Positions

Cape Bata

Last reported at 2014-Dec-18 05:33 UTC. Time now 2014-Dec-21 01:53 UTC.
Position N 32°20' W 117°42'.

Length 274 m; draft 9 m.

Type: Tanker. MMSI: 538090162.

Date/timePositionNaut miles runAvg speedWind from/ knotsBaromVisibWave heightAir tempDewpointWater temp
2014-Dec-18 05:33N 32°20' W 117°42'1413.7
2014-Dec-18 04:33N 32°34' W 117°48'1110.6
2014-Dec-18 03:33N 32°44' W 117°50'8 7.8
2014-Dec-18 02:33N 32°52' W 117°51'8 7.8
2014-Dec-18 01:33N 32°59' W 117°54'1211.6
2014-Dec-18 00:33N 33°10' W 117°60'1211.9
2014-Dec-17 23:33N 33°20' W 118°07'1212.3
2014-Dec-17 22:33N 33°32' W 118°12'1111.2
2014-Dec-17 21:33N 33°43' W 118°11'3 1.4
2014-Dec-17 19:19N 33°45' W 118°13'0 0.0
2014-Dec-17 16:25N 33°45' W 118°13'0 0.0
2014-Dec-17 14:19N 33°45' W 118°13'0 0.0
2014-Dec-16 21:07N 33°45' W 118°13'0 0.4
2014-Dec-16 20:33N 33°45' W 118°13'3 3.2
2014-Dec-16 19:34N 33°44' W 118°10'0 0.0
2014-Dec-16 10:18N 33°44' W 118°10'0 0.0
2014-Dec-16 09:33N 33°44' W 118°10'0 0.0
2014-Dec-16 08:12N 33°44' W 118°10'0 0.0
2014-Dec-16 07:24N 33°44' W 118°10'0 0.1
2014-Dec-16 06:33N 33°44' W 118°09'0 0.1
2014-Dec-16 05:33N 33°44' W 118°09'0 0.0
2014-Dec-16 04:06N 33°44' W 118°09'0 0.0
2014-Dec-16 03:27N 33°44' W 118°09'0 0.0
2014-Dec-16 02:30N 33°44' W 118°09'0 0.0
2014-Dec-16 01:09N 33°44' W 118°09'0 0.0
2014-Dec-16 00:06N 33°44' W 118°09'0 0.1
2014-Dec-15 23:33N 33°44' W 118°09'0 0.0
2014-Dec-15 22:33N 33°44' W 118°09'0 0.1
2014-Dec-15 21:33N 33°44' W 118°09'0 0.1
2014-Dec-15 20:18N 33°44' W 118°09'0 0.1
2014-Dec-15 19:30N 33°44' W 118°09'0 0.1
2014-Dec-15 18:33N 33°44' W 118°09'0 0.0
2014-Dec-15 17:33N 33°44' W 118°09'0 0.0
2014-Dec-15 16:33N 33°44' W 118°09'0 0.0
2014-Dec-15 15:18N 33°44' W 118°09'0 0.1
2014-Dec-15 14:33N 33°44' W 118°09'0 0.0
2014-Dec-15 11:24N 33°44' W 118°10'0 0.0
2014-Dec-15 10:33N 33°44' W 118°10'0 0.0
2014-Dec-15 09:06N 33°44' W 118°10'0 0.1
2014-Dec-15 07:21N 33°44' W 118°09'0 0.1
2014-Dec-15 06:33N 33°44' W 118°09'0 0.1
2014-Dec-15 05:33N 33°44' W 118°09'0 0.1
2014-Dec-15 04:21N 33°44' W 118°09'0 0.1
2014-Dec-15 03:30N 33°44' W 118°09'0 0.0
2014-Dec-15 02:15N 33°44' W 118°09'0 0.0
2014-Dec-15 01:33N 33°44' W 118°09'0 0.0
2014-Dec-15 00:33N 33°44' W 118°09'0 0.0
2014-Dec-14 23:33N 33°44' W 118°09'0 0.0
2014-Dec-14 22:15N 33°44' W 118°09'0 0.0
2014-Dec-14 21:22N 33°44' W 118°09'0 0.1
2014-Dec-14 20:31N 33°44' W 118°09'0 0.1
2014-Dec-14 19:25N 33°44' W 118°09'0 0.0
2014-Dec-14 09:28N 33°44' W 118°09'0 0.1
2014-Dec-14 08:28N 33°44' W 118°09'0 0.1
2014-Dec-14 07:22N 33°44' W 118°09'0 0.0
2014-Dec-14 06:31N 33°44' W 118°09'0 0.0
2014-Dec-14 05:31N 33°44' W 118°09'0 0.0
2014-Dec-14 04:31N 33°44' W 118°09'0 0.0
2014-Dec-14 03:19N 33°44' W 118°09'0 0.0
2014-Dec-14 01:25N 33°44' W 118°09'0 0.0
2014-Dec-14 00:31N 33°44' W 118°09'0 0.0
2014-Dec-13 22:04N 33°44' W 118°09'0 0.0
2014-Dec-13 21:22N 33°44' W 118°09'0 0.0
2014-Dec-13 20:28N 33°44' W 118°09'0 0.0
2014-Dec-13 19:31N 33°44' W 118°09'0 0.0
2014-Dec-13 18:28N 33°44' W 118°09'0 0.0
2014-Dec-13 17:28N 33°44' W 118°09'0 0.0
2014-Dec-13 16:28N 33°44' W 118°09'0 0.1
2014-Dec-13 15:31N 33°44' W 118°09'0 0.0
2014-Dec-13 14:31N 33°44' W 118°09'0 0.0
2014-Dec-13 13:31N 33°44' W 118°09'0 0.0
2014-Dec-13 12:22N 33°44' W 118°09'0 0.0
2014-Dec-13 09:22N 33°44' W 118°09'0 0.1
2014-Dec-13 07:34N 33°44' W 118°09'3 2.6
2014-Dec-13 06:14N 33°45' W 118°13'0 0.0
2014-Dec-13 03:26N 33°45' W 118°13'0 0.0
2014-Dec-13 01:29N 33°45' W 118°13'0 0.0
2014-Dec-12 23:23N 33°45' W 118°13'0 0.0
2014-Dec-12 22:32N 33°45' W 118°13'0 0.0
2014-Dec-12 21:23N 33°45' W 118°13'0 0.0
2014-Dec-12 20:26N 33°45' W 118°13'0 0.0
2014-Dec-12 19:26N 33°45' W 118°13'0 0.0
2014-Dec-12 18:20N 33°45' W 118°13'0 0.0
2014-Dec-12 13:17N 33°45' W 118°13'0 0.0
2014-Dec-12 12:32N 33°45' W 118°13'0 0.0
2014-Dec-12 03:05N 33°45' W 118°13'0 0.1
2014-Dec-11 21:33N 33°45' W 118°13'1 0.4
2014-Dec-11 18:33N 33°44' W 118°12'0 0.0
2014-Dec-11 15:17N 33°44' W 118°12'0 0.0
2014-Dec-11 13:13N 33°44' W 118°12'0 0.0
2014-Dec-11 12:11N 33°44' W 118°12'0 0.1
2014-Dec-11 11:09N 33°44' W 118°12'0 0.1
2014-Dec-11 07:31N 33°44' W 118°12'0 0.1
2014-Dec-11 06:31N 33°44' W 118°12'0 0.0
2014-Dec-11 05:34N 33°44' W 118°12'0 0.0
2014-Dec-11 04:32N 33°44' W 118°12'0 0.1
2014-Dec-11 03:32N 33°44' W 118°12'0 0.0
2014-Dec-11 02:32N 33°44' W 118°12'0 0.0
2014-Dec-11 01:29N 33°44' W 118°12'0 0.0
2014-Dec-11 00:32N 33°44' W 118°12'0 0.0
2014-Dec-10 23:31N 33°44' W 118°12'0 0.1
2014-Dec-10 22:31N 33°44' W 118°12'0 0.1
2014-Dec-10 21:34N 33°44' W 118°12'0 0.1
2014-Dec-10 20:14N 33°44' W 118°12'0 0.1
2014-Dec-10 19:33N 33°44' W 118°12'0 0.0
2014-Dec-10 18:17N 33°44' W 118°12'0 0.0
2014-Dec-10 17:32N 33°44' W 118°12'0 0.0
2014-Dec-10 16:31N 33°44' W 118°12'0 0.1
2014-Dec-10 15:06N 33°44' W 118°12'0 0.2
2014-Dec-10 14:33N 33°44' W 118°12'0 0.0
2014-Dec-10 13:09N 33°44' W 118°12'0 0.1
2014-Dec-10 12:28N 33°44' W 118°12'0 0.0
2014-Dec-10 11:31N 33°44' W 118°12'0 0.0
2014-Dec-10 10:31N 33°44' W 118°12'0 0.0
2014-Dec-10 09:31N 33°44' W 118°12'0 0.0
2014-Dec-10 08:31N 33°44' W 118°12'0 0.0
2014-Dec-10 07:31N 33°44' W 118°12'0 0.0
2014-Dec-10 06:33N 33°44' W 118°12'0 0.1
2014-Dec-10 05:34N 33°44' W 118°12'0 0.1
2014-Dec-10 04:32N 33°44' W 118°12'1 0.8
2014-Dec-10 03:33N 33°44' W 118°11'8 7.9
2014-Dec-10 02:34N 33°36' W 118°10'1211.7
2014-Dec-10 01:33N 33°25' W 118°05'1212.0
2014-Dec-10 00:34N 33°14' W 117°60'1111.4
2014-Dec-09 23:33N 33°03' W 117°55'7 6.7
2014-Dec-09 22:33N 32°57' W 117°52'9 9.0
2014-Dec-09 21:33N 32°48' W 117°50'1212.2
2014-Dec-09 20:33N 32°36' W 117°48'1212.2
2014-Dec-09 19:33N 32°24' W 117°44'1212.1
2014-Dec-09 18:33N 32°13' W 117°40'1212.2
2014-Dec-09 17:33N 32°01' W 117°35'1312.5
2014-Dec-09 16:32N 31°49' W 117°31'  
Track history (hours):
 
Tides and Currents Weather Stations Pressure Air Temp Water Temp Dewpoint Dewpoint Depression Visibility Wind Speed Wind Dir Waves Ship Positions

Cape Bata

Last reported at 2014-Dec-18 05:33 UTC. Time now 2014-Dec-21 01:53 UTC.
Position N 32°20' W 117°42'.

Length 274 m; draft 9 m.

Type: Tanker. MMSI: 538090162.

Date/timePositionNaut miles runAvg speedWind from/ knotsBaromVisibWave heightAir tempDewpointWater temp
2014-Dec-18 05:33N 32°20' W 117°42'1413.7
2014-Dec-18 04:33N 32°34' W 117°48'1110.6
2014-Dec-18 03:33N 32°44' W 117°50'8 7.8
2014-Dec-18 02:33N 32°52' W 117°51'8 7.8
2014-Dec-18 01:33N 32°59' W 117°54'1211.6
2014-Dec-18 00:33N 33°10' W 117°60'1211.9
2014-Dec-17 23:33N 33°20' W 118°07'1212.3
2014-Dec-17 22:33N 33°32' W 118°12'1111.2
2014-Dec-17 21:33N 33°43' W 118°11'3 1.4
2014-Dec-17 19:19N 33°45' W 118°13'0 0.0
2014-Dec-17 16:25N 33°45' W 118°13'0 0.0
2014-Dec-17 14:19N 33°45' W 118°13'0 0.0
2014-Dec-16 21:07N 33°45' W 118°13'0 0.4
2014-Dec-16 20:33N 33°45' W 118°13'3 3.2
2014-Dec-16 19:34N 33°44' W 118°10'0 0.0
2014-Dec-16 10:18N 33°44' W 118°10'0 0.0
2014-Dec-16 09:33N 33°44' W 118°10'0 0.0
2014-Dec-16 08:12N 33°44' W 118°10'0 0.0
2014-Dec-16 07:24N 33°44' W 118°10'0 0.1
2014-Dec-16 06:33N 33°44' W 118°09'0 0.1
2014-Dec-16 05:33N 33°44' W 118°09'0 0.0
2014-Dec-16 04:06N 33°44' W 118°09'0 0.0
2014-Dec-16 03:27N 33°44' W 118°09'0 0.0
2014-Dec-16 02:30N 33°44' W 118°09'0 0.0
2014-Dec-16 01:09N 33°44' W 118°09'0 0.0
2014-Dec-16 00:06N 33°44' W 118°09'0 0.1
2014-Dec-15 23:33N 33°44' W 118°09'0 0.0
2014-Dec-15 22:33N 33°44' W 118°09'0 0.1
2014-Dec-15 21:33N 33°44' W 118°09'0 0.1
2014-Dec-15 20:18N 33°44' W 118°09'0 0.1
2014-Dec-15 19:30N 33°44' W 118°09'0 0.1
2014-Dec-15 18:33N 33°44' W 118°09'0 0.0
2014-Dec-15 17:33N 33°44' W 118°09'0 0.0
2014-Dec-15 16:33N 33°44' W 118°09'0 0.0
2014-Dec-15 15:18N 33°44' W 118°09'0 0.1
2014-Dec-15 14:33N 33°44' W 118°09'0 0.0
2014-Dec-15 11:24N 33°44' W 118°10'0 0.0
2014-Dec-15 10:33N 33°44' W 118°10'0 0.0
2014-Dec-15 09:06N 33°44' W 118°10'0 0.1
2014-Dec-15 07:21N 33°44' W 118°09'0 0.1
2014-Dec-15 06:33N 33°44' W 118°09'0 0.1
2014-Dec-15 05:33N 33°44' W 118°09'0 0.1
2014-Dec-15 04:21N 33°44' W 118°09'0 0.1
2014-Dec-15 03:30N 33°44' W 118°09'0 0.0
2014-Dec-15 02:15N 33°44' W 118°09'0 0.0
2014-Dec-15 01:33N 33°44' W 118°09'0 0.0
2014-Dec-15 00:33N 33°44' W 118°09'0 0.0
2014-Dec-14 23:33N 33°44' W 118°09'0 0.0
2014-Dec-14 22:15N 33°44' W 118°09'0 0.0
2014-Dec-14 21:22N 33°44' W 118°09'0 0.1
2014-Dec-14 20:31N 33°44' W 118°09'0 0.1
2014-Dec-14 19:25N 33°44' W 118°09'0 0.0
2014-Dec-14 09:28N 33°44' W 118°09'0 0.1
2014-Dec-14 08:28N 33°44' W 118°09'0 0.1
2014-Dec-14 07:22N 33°44' W 118°09'0 0.0
2014-Dec-14 06:31N 33°44' W 118°09'0 0.0
2014-Dec-14 05:31N 33°44' W 118°09'0 0.0
2014-Dec-14 04:31N 33°44' W 118°09'0 0.0
2014-Dec-14 03:19N 33°44' W 118°09'0 0.0
2014-Dec-14 01:25N 33°44' W 118°09'0 0.0
2014-Dec-14 00:31N 33°44' W 118°09'0 0.0
2014-Dec-13 22:04N 33°44' W 118°09'0 0.0
2014-Dec-13 21:22N 33°44' W 118°09'0 0.0
2014-Dec-13 20:28N 33°44' W 118°09'0 0.0
2014-Dec-13 19:31N 33°44' W 118°09'0 0.0
2014-Dec-13 18:28N 33°44' W 118°09'0 0.0
2014-Dec-13 17:28N 33°44' W 118°09'0 0.0
2014-Dec-13 16:28N 33°44' W 118°09'0 0.1
2014-Dec-13 15:31N 33°44' W 118°09'0 0.0
2014-Dec-13 14:31N 33°44' W 118°09'0 0.0
2014-Dec-13 13:31N 33°44' W 118°09'0 0.0
2014-Dec-13 12:22N 33°44' W 118°09'0 0.0
2014-Dec-13 09:22N 33°44' W 118°09'0 0.1
2014-Dec-13 07:34N 33°44' W 118°09'3 2.6
2014-Dec-13 06:14N 33°45' W 118°13'0 0.0
2014-Dec-13 03:26N 33°45' W 118°13'0 0.0
2014-Dec-13 01:29N 33°45' W 118°13'0 0.0
2014-Dec-12 23:23N 33°45' W 118°13'0 0.0
2014-Dec-12 22:32N 33°45' W 118°13'0 0.0
2014-Dec-12 21:23N 33°45' W 118°13'0 0.0
2014-Dec-12 20:26N 33°45' W 118°13'0 0.0
2014-Dec-12 19:26N 33°45' W 118°13'0 0.0
2014-Dec-12 18:20N 33°45' W 118°13'0 0.0
2014-Dec-12 13:17N 33°45' W 118°13'0 0.0
2014-Dec-12 12:32N 33°45' W 118°13'0 0.0
2014-Dec-12 03:05N 33°45' W 118°13'0 0.1
2014-Dec-11 21:33N 33°45' W 118°13'1 0.4
2014-Dec-11 18:33N 33°44' W 118°12'0 0.0
2014-Dec-11 15:17N 33°44' W 118°12'0 0.0
2014-Dec-11 13:13N 33°44' W 118°12'0 0.0
2014-Dec-11 12:11N 33°44' W 118°12'0 0.1
2014-Dec-11 11:09N 33°44' W 118°12'0 0.1
2014-Dec-11 07:31N 33°44' W 118°12'0 0.1
2014-Dec-11 06:31N 33°44' W 118°12'0 0.0
2014-Dec-11 05:34N 33°44' W 118°12'0 0.0
2014-Dec-11 04:32N 33°44' W 118°12'0 0.1
2014-Dec-11 03:32N 33°44' W 118°12'0 0.0
2014-Dec-11 02:32N 33°44' W 118°12'0 0.0
2014-Dec-11 01:29N 33°44' W 118°12'0 0.0
2014-Dec-11 00:32N 33°44' W 118°12'0 0.0
2014-Dec-10 23:31N 33°44' W 118°12'0 0.1
2014-Dec-10 22:31N 33°44' W 118°12'0 0.1
2014-Dec-10 21:34N 33°44' W 118°12'0 0.1
2014-Dec-10 20:14N 33°44' W 118°12'0 0.1
2014-Dec-10 19:33N 33°44' W 118°12'0 0.0
2014-Dec-10 18:17N 33°44' W 118°12'0 0.0
2014-Dec-10 17:32N 33°44' W 118°12'0 0.0
2014-Dec-10 16:31N 33°44' W 118°12'0 0.1
2014-Dec-10 15:06N 33°44' W 118°12'0 0.2
2014-Dec-10 14:33N 33°44' W 118°12'0 0.0
2014-Dec-10 13:09N 33°44' W 118°12'0 0.1
2014-Dec-10 12:28N 33°44' W 118°12'0 0.0
2014-Dec-10 11:31N 33°44' W 118°12'0 0.0
2014-Dec-10 10:31N 33°44' W 118°12'0 0.0
2014-Dec-10 09:31N 33°44' W 118°12'0 0.0
2014-Dec-10 08:31N 33°44' W 118°12'0 0.0
2014-Dec-10 07:31N 33°44' W 118°12'0 0.0
2014-Dec-10 06:33N 33°44' W 118°12'0 0.1
2014-Dec-10 05:34N 33°44' W 118°12'0 0.1
2014-Dec-10 04:32N 33°44' W 118°12'1 0.8
2014-Dec-10 03:33N 33°44' W 118°11'8 7.9
2014-Dec-10 02:34N 33°36' W 118°10'1211.7
2014-Dec-10 01:33N 33°25' W 118°05'1212.0
2014-Dec-10 00:34N 33°14' W 117°60'1111.4
2014-Dec-09 23:33N 33°03' W 117°55'7 6.7
2014-Dec-09 22:33N 32°57' W 117°52'9 9.0
2014-Dec-09 21:33N 32°48' W 117°50'1212.2
2014-Dec-09 20:33N 32°36' W 117°48'1212.2
2014-Dec-09 19:33N 32°24' W 117°44'1212.1
2014-Dec-09 18:33N 32°13' W 117°40'1212.2
2014-Dec-09 17:33N 32°01' W 117°35'1312.5
2014-Dec-09 16:32N 31°49' W 117°31'  

Dump ship's entire track history